createdAt,value
2018-03-11T00:00:55.848Z,946.41
2018-03-11T00:01:55.789Z,946.38
2018-03-11T00:02:55.732Z,946.39
2018-03-11T00:03:55.670Z,946.40
2018-03-11T00:04:55.611Z,946.40
2018-03-11T00:05:55.552Z,946.45
2018-03-11T00:06:55.496Z,946.42
2018-03-11T00:07:55.436Z,946.43
2018-03-11T00:08:55.375Z,946.33
2018-03-11T00:09:55.312Z,946.29
2018-03-11T00:10:55.254Z,946.25
2018-03-11T00:11:55.196Z,946.18
2018-03-11T00:12:55.138Z,946.11
2018-03-11T00:13:55.078Z,946.07
2018-03-11T00:14:55.017Z,946.02
2018-03-11T00:15:54.959Z,946.02
2018-03-11T00:16:54.899Z,946.02
2018-03-11T00:17:54.839Z,946.04
2018-03-11T00:18:54.778Z,946.03
2018-03-11T00:19:54.722Z,946.06
2018-03-11T00:20:54.663Z,946.10
2018-03-11T00:21:54.601Z,946.17
2018-03-11T00:22:54.542Z,946.08
2018-03-11T00:23:54.482Z,946.08
2018-03-11T00:24:54.420Z,946.05
2018-03-11T00:25:54.360Z,946.01
2018-03-11T00:26:54.300Z,946.06
2018-03-11T00:27:54.242Z,946.03
2018-03-11T00:28:54.182Z,946.05
2018-03-11T00:29:54.141Z,946.03
2018-03-11T00:30:54.062Z,946.02
2018-03-11T00:31:54.002Z,946.00
2018-03-11T00:32:53.942Z,945.97
2018-03-11T00:33:53.888Z,945.94
2018-03-11T00:34:53.823Z,945.94
2018-03-11T00:35:53.764Z,945.85
2018-03-11T00:36:53.704Z,945.82
2018-03-11T00:37:53.643Z,945.84
2018-03-11T00:38:53.586Z,945.81
2018-03-11T00:39:53.527Z,945.81
2018-03-11T00:40:53.464Z,945.78
2018-03-11T00:41:53.406Z,945.72
2018-03-11T00:42:53.344Z,945.73
2018-03-11T00:43:53.286Z,945.74
2018-03-11T00:44:53.225Z,945.69
2018-03-11T00:45:53.168Z,945.67
2018-03-11T00:46:53.101Z,945.66
2018-03-11T00:47:53.045Z,945.64
2018-03-11T00:48:52.984Z,945.61
2018-03-11T00:49:52.924Z,945.61
2018-03-11T00:50:52.869Z,945.56
2018-03-11T00:51:52.806Z,945.60
2018-03-11T00:52:52.746Z,945.60
2018-03-11T00:53:52.698Z,945.53
2018-03-11T00:54:52.626Z,945.52
2018-03-11T00:55:52.567Z,945.47
2018-03-11T00:56:52.508Z,945.46
2018-03-11T00:57:52.447Z,945.49
2018-03-11T00:58:52.388Z,945.51
2018-03-11T00:59:52.328Z,945.53
2018-03-11T01:00:52.266Z,945.50
2018-03-11T01:01:52.206Z,945.45
2018-03-11T01:02:52.147Z,945.47
2018-03-11T01:03:52.088Z,945.41
2018-03-11T01:04:52.027Z,945.40
2018-03-11T01:05:51.973Z,945.38
2018-03-11T01:06:51.909Z,945.36
2018-03-11T01:07:51.847Z,945.35
2018-03-11T01:08:51.786Z,945.35
2018-03-11T01:09:51.726Z,945.32
2018-03-11T01:10:51.670Z,945.30
2018-03-11T01:11:51.609Z,945.26
2018-03-11T01:12:51.547Z,945.20
2018-03-11T01:13:51.488Z,945.15
2018-03-11T01:14:51.427Z,945.09
2018-03-11T01:15:51.368Z,945.07
2018-03-11T01:16:51.307Z,945.08
2018-03-11T01:17:51.247Z,945.09
2018-03-11T01:18:51.194Z,945.04
2018-03-11T01:19:51.128Z,945.05
2018-03-11T01:20:51.067Z,945.09
2018-03-11T01:21:51.010Z,945.10
2018-03-11T01:22:50.948Z,945.14
2018-03-11T01:23:50.888Z,945.13
2018-03-11T01:24:50.829Z,945.14
2018-03-11T01:25:50.771Z,945.10
2018-03-11T01:26:50.707Z,945.06
2018-03-11T01:27:50.651Z,945.04
2018-03-11T01:28:50.589Z,944.99
2018-03-11T01:29:50.528Z,944.93
2018-03-11T01:30:50.470Z,944.87
2018-03-11T01:31:50.414Z,944.88
2018-03-11T01:32:50.351Z,944.87
2018-03-11T01:33:50.290Z,944.85
2018-03-11T01:34:50.227Z,944.85
2018-03-11T01:35:50.196Z,944.80
2018-03-11T01:36:50.108Z,944.74
2018-03-11T01:37:50.046Z,944.74
2018-03-11T01:38:49.986Z,944.73
2018-03-11T01:39:49.928Z,944.74
2018-03-11T01:40:49.866Z,944.72
2018-03-11T01:41:49.809Z,944.66
2018-03-11T01:42:49.747Z,944.66
2018-03-11T01:43:49.772Z,944.62
2018-03-11T01:44:49.624Z,944.59
2018-03-11T01:45:49.569Z,944.61
2018-03-11T01:46:49.506Z,944.61
2018-03-11T01:47:49.447Z,944.61
2018-03-11T01:48:49.385Z,944.62
2018-03-11T01:49:49.329Z,944.62
2018-03-11T01:50:49.272Z,944.61
2018-03-11T01:51:49.213Z,944.62
2018-03-11T01:52:49.146Z,944.64
2018-03-11T01:53:49.090Z,944.64
2018-03-11T01:54:49.029Z,944.68
2018-03-11T01:55:48.966Z,944.65
2018-03-11T01:56:48.908Z,944.70
2018-03-11T01:57:48.844Z,944.76
2018-03-11T01:58:48.785Z,944.73
2018-03-11T01:59:48.725Z,944.80
2018-03-11T02:00:48.663Z,944.78
2018-03-11T02:01:48.604Z,944.73
2018-03-11T02:02:48.545Z,944.77
2018-03-11T02:03:48.483Z,944.71
2018-03-11T02:04:48.421Z,944.68
2018-03-11T02:05:48.361Z,944.67
2018-03-11T02:06:48.302Z,944.63
2018-03-11T02:07:48.241Z,944.56
2018-03-11T02:08:48.182Z,944.56
2018-03-11T02:09:48.122Z,944.57
2018-03-11T02:10:48.059Z,944.52
2018-03-11T02:11:48.000Z,944.53
2018-03-11T02:12:47.939Z,944.55
2018-03-11T02:13:47.889Z,944.54
2018-03-11T02:14:47.825Z,944.50
2018-03-11T02:15:47.759Z,944.48
2018-03-11T02:16:47.695Z,944.56
2018-03-11T02:17:47.639Z,944.52
2018-03-11T02:18:47.578Z,944.54
2018-03-11T02:19:47.517Z,944.48
2018-03-11T02:20:47.454Z,944.51
2018-03-11T02:21:47.396Z,944.54
2018-03-11T02:22:47.334Z,944.57
2018-03-11T02:23:47.276Z,944.66
2018-03-11T02:24:47.214Z,944.67
2018-03-11T02:25:47.157Z,944.67
2018-03-11T02:26:47.103Z,944.65
2018-03-11T02:27:47.034Z,944.61
2018-03-11T02:28:46.972Z,944.60
2018-03-11T02:29:46.913Z,944.52
2018-03-11T02:30:46.853Z,944.50
2018-03-11T02:31:46.798Z,944.51
2018-03-11T02:32:46.731Z,944.50
2018-03-11T02:33:46.670Z,944.46
2018-03-11T02:34:46.615Z,944.50
2018-03-11T02:35:46.551Z,944.54
2018-03-11T02:36:46.494Z,944.54
2018-03-11T02:37:46.430Z,944.55
2018-03-11T02:38:46.371Z,944.58
2018-03-11T02:39:46.311Z,944.59
2018-03-11T02:40:46.249Z,944.61
2018-03-11T02:41:46.192Z,944.62
2018-03-11T02:42:46.128Z,944.59
2018-03-11T02:43:46.070Z,944.57
2018-03-11T02:44:46.007Z,944.64
2018-03-11T02:45:45.947Z,944.63
2018-03-11T02:46:45.888Z,944.62
2018-03-11T02:47:45.833Z,944.66
2018-03-11T02:48:45.768Z,944.65
2018-03-11T02:49:45.707Z,944.68
2018-03-11T02:50:45.648Z,944.65
2018-03-11T02:51:45.588Z,944.62
2018-03-11T02:52:45.534Z,944.61
2018-03-11T02:53:45.469Z,944.56
2018-03-11T02:54:45.405Z,944.54
2018-03-11T02:55:45.348Z,944.54
2018-03-11T02:56:45.285Z,944.45
2018-03-11T02:57:45.224Z,944.48
2018-03-11T02:58:45.166Z,944.48
2018-03-11T02:59:45.105Z,944.44
2018-03-11T03:00:45.044Z,944.48
2018-03-11T03:01:44.984Z,944.48
2018-03-11T03:02:44.924Z,944.48
2018-03-11T03:03:44.865Z,944.40
2018-03-11T03:04:44.805Z,944.39
2018-03-11T03:05:44.745Z,944.43
2018-03-11T03:06:44.682Z,944.42
2018-03-11T03:07:44.625Z,944.41
2018-03-11T03:08:44.563Z,944.42
2018-03-11T03:09:44.504Z,944.48
2018-03-11T03:10:44.448Z,944.51
2018-03-11T03:11:44.385Z,944.52
2018-03-11T03:12:44.322Z,944.51
2018-03-11T03:13:44.267Z,944.46
2018-03-11T03:14:44.206Z,944.40
2018-03-11T03:15:44.144Z,944.26
2018-03-11T03:16:44.087Z,944.18
2018-03-11T03:17:44.024Z,944.11
2018-03-11T03:18:43.963Z,944.07
2018-03-11T03:19:43.904Z,944.02
2018-03-11T03:20:43.842Z,944.05
2018-03-11T03:21:43.781Z,944.05
2018-03-11T03:22:43.723Z,944.09
2018-03-11T03:23:43.665Z,944.13
2018-03-11T03:24:43.602Z,944.19
2018-03-11T03:25:43.548Z,944.14
2018-03-11T03:26:43.488Z,944.20
2018-03-11T03:27:43.423Z,944.17
2018-03-11T03:28:43.364Z,944.20
2018-03-11T03:29:43.306Z,944.09
2018-03-11T03:30:43.250Z,944.06
2018-03-11T03:31:43.185Z,944.01
2018-03-11T03:32:43.122Z,943.98
2018-03-11T03:33:43.063Z,943.92
2018-03-11T03:34:43.003Z,943.92
2018-03-11T03:35:42.948Z,943.89
2018-03-11T03:36:42.883Z,943.91
2018-03-11T03:37:42.824Z,943.94
2018-03-11T03:38:42.764Z,943.99
2018-03-11T03:39:42.704Z,944.02
2018-03-11T03:40:42.645Z,944.07
2018-03-11T03:41:42.585Z,944.06
2018-03-11T03:42:42.525Z,943.99
2018-03-11T03:43:42.466Z,943.95
2018-03-11T03:44:42.404Z,943.87
2018-03-11T03:45:42.345Z,943.84
2018-03-11T03:46:42.286Z,943.83
2018-03-11T03:47:42.229Z,943.83
2018-03-11T03:48:42.166Z,943.81
2018-03-11T03:49:42.107Z,943.77
2018-03-11T03:50:42.046Z,943.76
2018-03-11T03:51:41.986Z,943.76
2018-03-11T03:52:41.929Z,943.71
2018-03-11T03:53:41.865Z,943.65
2018-03-11T03:54:41.806Z,943.69
2018-03-11T03:55:41.747Z,943.62
2018-03-11T03:56:41.688Z,943.64
2018-03-11T03:57:41.625Z,943.67
2018-03-11T03:58:41.568Z,943.59
2018-03-11T03:59:41.507Z,943.53
2018-03-11T04:00:41.447Z,943.49
2018-03-11T04:01:41.388Z,943.49
2018-03-11T04:02:41.329Z,943.46
2018-03-11T04:03:41.269Z,943.48
2018-03-11T04:04:41.207Z,943.50
2018-03-11T04:05:41.151Z,943.49
2018-03-11T04:06:41.093Z,943.49
2018-03-11T04:07:41.029Z,943.45
2018-03-11T04:08:40.976Z,943.44
2018-03-11T04:09:40.911Z,943.44
2018-03-11T04:10:40.850Z,943.42
2018-03-11T04:11:40.791Z,943.41
2018-03-11T04:12:40.742Z,943.29
2018-03-11T04:13:40.670Z,943.14
2018-03-11T04:14:40.612Z,943.10
2018-03-11T04:15:40.552Z,942.99
2018-03-11T04:16:40.493Z,942.92
2018-03-11T04:17:40.436Z,942.92
2018-03-11T04:18:40.371Z,942.90
2018-03-11T04:19:40.313Z,942.92
2018-03-11T04:20:40.253Z,942.96
2018-03-11T04:21:40.193Z,943.05
2018-03-11T04:22:40.133Z,943.06
2018-03-11T04:23:40.073Z,942.97
2018-03-11T04:24:40.014Z,942.97
2018-03-11T04:25:39.952Z,942.89
2018-03-11T04:26:39.894Z,942.87
2018-03-11T04:27:39.835Z,942.83
2018-03-11T04:28:39.772Z,942.77
2018-03-11T04:29:39.713Z,942.73
2018-03-11T04:30:39.653Z,942.70
2018-03-11T04:31:39.596Z,942.69
2018-03-11T04:32:39.536Z,942.67
2018-03-11T04:33:39.478Z,942.61
2018-03-11T04:34:39.413Z,942.60
2018-03-11T04:35:39.357Z,942.53
2018-03-11T04:36:39.298Z,942.41
2018-03-11T04:37:39.235Z,942.32
2018-03-11T04:38:39.174Z,942.24
2018-03-11T04:39:39.118Z,942.17
2018-03-11T04:40:39.055Z,942.04
2018-03-11T04:41:38.996Z,942.02
2018-03-11T04:42:38.936Z,941.99
2018-03-11T04:43:38.876Z,941.94
2018-03-11T04:44:38.817Z,941.95
2018-03-11T04:45:38.764Z,941.87
2018-03-11T04:46:38.698Z,941.83
2018-03-11T04:47:38.641Z,941.75
2018-03-11T04:48:38.575Z,941.64
2018-03-11T04:49:38.517Z,941.60
2018-03-11T04:50:38.457Z,941.61
2018-03-11T04:51:38.398Z,941.60
2018-03-11T04:52:38.335Z,941.68
2018-03-11T04:53:38.277Z,941.74
2018-03-11T04:54:38.216Z,941.89
2018-03-11T04:55:38.157Z,941.92
2018-03-11T04:56:38.097Z,941.98
2018-03-11T04:57:38.038Z,942.07
2018-03-11T04:58:37.980Z,942.11
2018-03-11T04:59:37.917Z,942.17
2018-03-11T05:00:37.857Z,942.15
2018-03-11T05:01:37.796Z,942.13
2018-03-11T05:02:37.739Z,942.11
2018-03-11T05:03:37.677Z,942.12
2018-03-11T05:04:37.616Z,942.02
2018-03-11T05:05:37.558Z,941.98
2018-03-11T05:06:37.498Z,941.99
2018-03-11T05:07:37.438Z,941.91
2018-03-11T05:08:37.379Z,941.88
2018-03-11T05:09:37.318Z,941.81
2018-03-11T05:10:37.257Z,941.77
2018-03-11T05:11:37.196Z,941.76
2018-03-11T05:12:37.136Z,941.77
2018-03-11T05:13:37.077Z,941.83
2018-03-11T05:14:37.017Z,941.90
2018-03-11T05:15:36.956Z,941.95
2018-03-11T05:16:36.897Z,942.05
2018-03-11T05:17:36.837Z,942.03
2018-03-11T05:18:36.779Z,942.01
2018-03-11T05:19:36.719Z,941.98
2018-03-11T05:20:36.656Z,941.95
2018-03-11T05:21:36.596Z,941.98
2018-03-11T05:22:36.540Z,941.97
2018-03-11T05:23:36.476Z,942.03
2018-03-11T05:24:36.415Z,941.96
2018-03-11T05:25:36.356Z,941.96
2018-03-11T05:26:36.296Z,941.99
2018-03-11T05:27:36.235Z,941.96
2018-03-11T05:28:36.175Z,941.93
2018-03-11T05:29:36.116Z,941.87
2018-03-11T05:30:36.058Z,941.90
2018-03-11T05:31:35.999Z,941.81
2018-03-11T05:32:35.934Z,941.80
2018-03-11T05:33:35.875Z,941.72
2018-03-11T05:34:35.814Z,941.68
2018-03-11T05:35:35.755Z,941.63
2018-03-11T05:36:35.694Z,941.60
2018-03-11T05:37:35.635Z,941.59
2018-03-11T05:38:35.575Z,941.61
2018-03-11T05:39:35.514Z,941.57
2018-03-11T05:40:35.455Z,941.42
2018-03-11T05:41:35.394Z,941.28
2018-03-11T05:42:35.343Z,941.07
2018-03-11T05:43:35.276Z,940.82
2018-03-11T05:44:35.213Z,940.65
2018-03-11T05:45:35.155Z,940.43
2018-03-11T05:46:35.093Z,940.37
2018-03-11T05:47:35.034Z,940.41
2018-03-11T05:48:34.975Z,940.64
2018-03-11T05:49:34.914Z,940.89
2018-03-11T05:50:34.854Z,941.23
2018-03-11T05:51:34.795Z,941.44
2018-03-11T05:52:34.734Z,941.48
2018-03-11T05:53:34.677Z,941.47
2018-03-11T05:54:34.613Z,941.39
2018-03-11T05:55:34.554Z,941.35
2018-03-11T05:56:34.494Z,941.29
2018-03-11T05:57:34.433Z,941.34
2018-03-11T05:58:34.372Z,941.52
2018-03-11T05:59:34.326Z,941.67
2018-03-11T06:00:34.254Z,941.82
2018-03-11T06:01:34.192Z,941.90
2018-03-11T06:02:34.131Z,941.89
2018-03-11T06:03:34.073Z,941.87
2018-03-11T06:04:34.011Z,941.70
2018-03-11T06:05:33.953Z,941.48
2018-03-11T06:06:33.895Z,941.46
2018-03-11T06:07:33.833Z,941.45
2018-03-11T06:08:33.772Z,941.46
2018-03-11T06:09:33.712Z,941.43
2018-03-11T06:10:33.715Z,941.51
2018-03-11T06:11:33.595Z,941.61
2018-03-11T06:12:33.531Z,941.59
2018-03-11T06:13:33.474Z,941.53
2018-03-11T06:14:33.411Z,941.44
2018-03-11T06:15:33.352Z,941.36
2018-03-11T06:16:33.293Z,941.30
2018-03-11T06:17:33.233Z,941.21
2018-03-11T06:18:33.173Z,941.17
2018-03-11T06:19:33.111Z,941.18
2018-03-11T06:20:33.052Z,941.26
2018-03-11T06:21:32.992Z,941.27
2018-03-11T06:22:32.931Z,941.25
2018-03-11T06:23:32.874Z,941.20
2018-03-11T06:24:32.810Z,941.13
2018-03-11T06:25:32.752Z,941.05
2018-03-11T06:26:32.732Z,941.05
2018-03-11T06:27:32.633Z,940.97
2018-03-11T06:28:32.573Z,940.90
2018-03-11T06:29:32.512Z,940.84
2018-03-11T06:30:32.451Z,940.87
2018-03-11T06:31:32.392Z,940.94
2018-03-11T06:32:32.332Z,940.89
2018-03-11T06:33:32.272Z,940.84
2018-03-11T06:34:32.215Z,940.89
2018-03-11T06:35:32.153Z,940.96
2018-03-11T06:36:32.083Z,940.97
2018-03-11T06:37:32.031Z,940.99
2018-03-11T06:38:31.971Z,941.02
2018-03-11T06:39:31.909Z,941.08
2018-03-11T06:40:31.848Z,941.09
2018-03-11T06:41:31.791Z,941.08
2018-03-11T06:42:31.733Z,941.09
2018-03-11T06:43:31.676Z,941.07
2018-03-11T06:44:31.609Z,941.12
2018-03-11T06:45:31.548Z,941.20
2018-03-11T06:46:31.490Z,941.25
2018-03-11T06:47:31.430Z,941.33
2018-03-11T06:48:31.369Z,941.37
2018-03-11T06:49:31.312Z,941.42
2018-03-11T06:50:31.248Z,941.39
2018-03-11T06:51:31.196Z,941.41
2018-03-11T06:52:31.131Z,941.40
2018-03-11T06:53:31.068Z,941.46
2018-03-11T06:54:31.012Z,941.46
2018-03-11T06:55:30.947Z,941.48
2018-03-11T06:56:30.887Z,941.50
2018-03-11T06:57:30.827Z,941.50
2018-03-11T06:58:30.766Z,941.53
2018-03-11T06:59:30.709Z,941.58
2018-03-11T07:00:30.647Z,941.60
2018-03-11T07:01:30.587Z,941.61
2018-03-11T07:02:30.530Z,941.65
2018-03-11T07:03:30.469Z,941.64
2018-03-11T07:04:30.406Z,941.59
2018-03-11T07:05:30.347Z,941.59
2018-03-11T07:06:30.289Z,941.66
2018-03-11T07:07:30.231Z,941.71
2018-03-11T07:08:30.168Z,941.74
2018-03-11T07:09:30.109Z,941.77
2018-03-11T07:10:30.050Z,941.77
2018-03-11T07:11:29.989Z,941.75
2018-03-11T07:12:29.933Z,941.82
2018-03-11T07:13:29.868Z,941.83
2018-03-11T07:14:29.813Z,941.84
2018-03-11T07:15:29.750Z,941.94
2018-03-11T07:16:29.690Z,941.95
2018-03-11T07:17:29.630Z,942.02
2018-03-11T07:18:29.571Z,942.05
2018-03-11T07:19:29.510Z,942.10
2018-03-11T07:20:29.452Z,942.16
2018-03-11T07:21:29.391Z,942.22
2018-03-11T07:22:29.331Z,942.20
2018-03-11T07:23:29.272Z,942.17
2018-03-11T07:24:29.213Z,942.18
2018-03-11T07:25:29.151Z,942.14
2018-03-11T07:26:29.091Z,942.18
2018-03-11T07:27:29.033Z,942.22
2018-03-11T07:28:28.973Z,942.24
2018-03-11T07:29:28.911Z,942.26
2018-03-11T07:30:28.851Z,942.30
2018-03-11T07:31:28.793Z,942.27
2018-03-11T07:32:28.733Z,942.27
2018-03-11T07:33:28.673Z,942.28
2018-03-11T07:34:28.614Z,942.33
2018-03-11T07:35:28.556Z,942.37
2018-03-11T07:36:28.496Z,942.41
2018-03-11T07:37:28.433Z,942.48
2018-03-11T07:38:28.373Z,942.54
2018-03-11T07:39:28.314Z,942.57
2018-03-11T07:40:28.252Z,942.67
2018-03-11T07:41:28.195Z,942.66
2018-03-11T07:42:28.137Z,942.67
2018-03-11T07:43:28.073Z,942.71
2018-03-11T07:44:28.013Z,942.61
2018-03-11T07:45:27.956Z,942.61
2018-03-11T07:46:27.893Z,942.60
2018-03-11T07:47:27.832Z,942.59
2018-03-11T07:48:27.772Z,942.60
2018-03-11T07:49:27.712Z,942.56
2018-03-11T07:50:27.655Z,942.56
2018-03-11T07:51:27.592Z,942.62
2018-03-11T07:52:27.532Z,942.64
2018-03-11T07:53:27.476Z,942.63
2018-03-11T07:54:27.454Z,942.65
2018-03-11T07:55:27.355Z,942.67
2018-03-11T07:56:27.291Z,942.61
2018-03-11T07:57:27.232Z,942.62
2018-03-11T07:58:27.173Z,942.57
2018-03-11T07:59:27.118Z,942.51
2018-03-11T08:00:27.052Z,942.49
2018-03-11T08:01:26.994Z,942.49
2018-03-11T08:02:26.935Z,942.46
2018-03-11T08:03:26.876Z,942.45
2018-03-11T08:04:26.816Z,942.46
2018-03-11T08:05:26.756Z,942.55
2018-03-11T08:06:26.697Z,942.55
2018-03-11T08:07:26.636Z,942.55
2018-03-11T08:08:26.575Z,942.48
2018-03-11T08:09:26.517Z,942.46
2018-03-11T08:10:26.457Z,942.40
2018-03-11T08:11:26.398Z,942.42
2018-03-11T08:12:26.339Z,942.40
2018-03-11T08:13:26.283Z,942.40
2018-03-11T08:14:26.228Z,942.41
2018-03-11T08:15:26.162Z,942.39
2018-03-11T08:16:26.101Z,942.42
2018-03-11T08:17:26.046Z,942.40
2018-03-11T08:18:25.985Z,942.40
2018-03-11T08:19:25.928Z,942.35
2018-03-11T08:20:25.868Z,942.33
2018-03-11T08:21:25.811Z,942.29
2018-03-11T08:22:25.750Z,942.32
2018-03-11T08:23:25.691Z,942.40
2018-03-11T08:24:25.638Z,942.38
2018-03-11T08:25:25.577Z,942.39
2018-03-11T08:26:25.515Z,942.36
2018-03-11T08:27:25.456Z,942.42
2018-03-11T08:28:25.398Z,942.36
2018-03-11T08:29:25.356Z,942.41
2018-03-11T08:30:25.282Z,942.38
2018-03-11T08:31:25.223Z,942.36
2018-03-11T08:32:25.172Z,942.38
2018-03-11T08:33:25.101Z,942.34
2018-03-11T08:34:25.046Z,942.29
2018-03-11T08:35:24.987Z,942.26
2018-03-11T08:36:24.926Z,942.26
2018-03-11T08:37:24.869Z,942.25
2018-03-11T08:38:24.809Z,942.21
2018-03-11T08:39:24.755Z,942.17
2018-03-11T08:40:24.694Z,942.14
2018-03-11T08:41:24.634Z,942.29
2018-03-11T08:42:24.583Z,942.29
2018-03-11T08:43:24.521Z,942.29
2018-03-11T08:44:24.460Z,942.31
2018-03-11T08:45:24.402Z,942.31
2018-03-11T08:46:24.345Z,942.31
2018-03-11T08:47:24.289Z,942.29
2018-03-11T08:48:24.240Z,942.32
2018-03-11T08:49:24.170Z,942.36
2018-03-11T08:50:24.108Z,942.34
2018-03-11T08:51:24.054Z,942.31
2018-03-11T08:52:23.995Z,942.29
2018-03-11T08:53:23.937Z,942.23
2018-03-11T08:54:23.878Z,942.24
2018-03-11T08:55:23.820Z,942.20
2018-03-11T08:56:23.762Z,942.23
2018-03-11T08:57:23.702Z,942.26
2018-03-11T08:58:23.646Z,942.26
2018-03-11T08:59:23.615Z,942.24
2018-03-11T09:00:23.529Z,942.17
2018-03-11T09:01:23.469Z,942.14
2018-03-11T09:02:23.412Z,942.12
2018-03-11T09:03:23.358Z,942.12
2018-03-11T09:04:23.297Z,942.11
2018-03-11T09:05:23.240Z,942.13
2018-03-11T09:06:23.182Z,942.12
2018-03-11T09:07:23.124Z,942.12
2018-03-11T09:08:23.064Z,942.10
2018-03-11T09:09:23.007Z,942.02
2018-03-11T09:10:22.979Z,942.03
2018-03-11T09:11:22.890Z,942.00
2018-03-11T09:12:22.835Z,941.98
2018-03-11T09:13:22.775Z,942.02
2018-03-11T09:14:22.717Z,942.01
2018-03-11T09:15:22.659Z,942.04
2018-03-11T09:16:22.602Z,942.06
2018-03-11T09:17:22.544Z,942.04
2018-03-11T09:18:22.486Z,942.02
2018-03-11T09:19:22.430Z,942.04
2018-03-11T09:20:22.376Z,941.97
2018-03-11T09:21:22.317Z,941.95
2018-03-11T09:22:22.257Z,941.94
2018-03-11T09:23:22.203Z,941.96
2018-03-11T09:24:22.142Z,941.97
2018-03-11T09:25:22.088Z,941.99
2018-03-11T09:26:22.029Z,942.03
2018-03-11T09:27:21.973Z,942.03
2018-03-11T09:28:21.913Z,942.05
2018-03-11T09:29:21.858Z,942.05
2018-03-11T09:30:21.804Z,942.00
2018-03-11T09:31:21.746Z,941.95
2018-03-11T09:32:21.684Z,941.95
2018-03-11T09:33:21.626Z,942.01
2018-03-11T09:34:21.573Z,941.99
2018-03-11T09:35:21.529Z,942.06
2018-03-11T09:36:21.454Z,941.98
2018-03-11T09:37:21.408Z,941.94
2018-03-11T09:38:21.346Z,942.02
2018-03-11T09:39:21.287Z,942.03
2018-03-11T09:40:21.228Z,941.98
2018-03-11T09:41:21.170Z,941.98
2018-03-11T09:42:21.117Z,941.95
2018-03-11T09:43:21.066Z,941.85
2018-03-11T09:44:21.000Z,941.90
2018-03-11T09:45:20.949Z,941.87
2018-03-11T09:46:20.888Z,941.86
2018-03-11T09:47:20.837Z,941.88
2018-03-11T09:48:20.775Z,941.85
2018-03-11T09:49:20.717Z,941.88
2018-03-11T09:50:20.659Z,941.83
2018-03-11T09:51:20.603Z,941.83
2018-03-11T09:52:20.545Z,941.80
2018-03-11T09:53:20.493Z,941.81
2018-03-11T09:54:20.432Z,941.80
2018-03-11T09:55:20.411Z,941.81
2018-03-11T09:56:20.329Z,941.86
2018-03-11T09:57:20.264Z,941.83
2018-03-11T09:58:20.204Z,941.80
2018-03-11T09:59:20.147Z,941.82
2018-03-11T10:00:20.087Z,941.76
2018-03-11T10:01:20.038Z,941.73
2018-03-11T10:02:19.979Z,941.70
2018-03-11T10:03:19.922Z,941.68
2018-03-11T10:04:19.870Z,941.62
2018-03-11T10:05:19.806Z,941.63
2018-03-11T10:06:19.753Z,941.60
2018-03-11T10:07:19.696Z,941.63
2018-03-11T10:08:19.642Z,941.62
2018-03-11T10:09:19.584Z,941.63
2018-03-11T10:10:19.526Z,941.60
2018-03-11T10:11:19.474Z,941.60
2018-03-11T10:12:19.414Z,941.58
2018-03-11T10:13:19.356Z,941.57
2018-03-11T10:14:19.302Z,941.62
2018-03-11T10:15:19.246Z,941.59
2018-03-11T10:16:19.307Z,941.61
2018-03-11T10:17:19.131Z,941.59
2018-03-11T10:18:19.076Z,941.57
2018-03-11T10:19:19.021Z,941.60
2018-03-11T10:20:18.964Z,941.56
2018-03-11T10:21:18.905Z,941.57
2018-03-11T10:22:18.850Z,941.53
2018-03-11T10:23:18.799Z,941.52
2018-03-11T10:24:18.743Z,941.57
2018-03-11T10:25:18.681Z,941.57
2018-03-11T10:26:18.625Z,941.59
2018-03-11T10:27:18.570Z,941.55
2018-03-11T10:28:18.514Z,941.47
2018-03-11T10:29:18.461Z,941.47
2018-03-11T10:30:18.401Z,941.44
2018-03-11T10:31:18.346Z,941.46
2018-03-11T10:32:18.289Z,941.52
2018-03-11T10:33:18.233Z,941.54
2018-03-11T10:34:18.180Z,941.54
2018-03-11T10:35:18.120Z,941.52
2018-03-11T10:36:18.063Z,941.54
2018-03-11T10:37:18.010Z,941.51
2018-03-11T10:38:17.954Z,941.50
2018-03-11T10:39:17.900Z,941.47
2018-03-11T10:40:17.840Z,941.45
2018-03-11T10:41:17.785Z,941.45
2018-03-11T10:42:17.731Z,941.43
2018-03-11T10:43:17.676Z,941.47
2018-03-11T10:44:17.618Z,941.52
2018-03-11T10:45:17.562Z,941.55
2018-03-11T10:46:17.505Z,941.50
2018-03-11T10:47:17.448Z,941.54
2018-03-11T10:48:17.395Z,941.48
2018-03-11T10:49:17.338Z,941.49
2018-03-11T10:50:17.282Z,941.50
2018-03-11T10:51:17.228Z,941.47
2018-03-11T10:52:17.169Z,941.44
2018-03-11T10:53:17.114Z,941.35
2018-03-11T10:54:17.059Z,941.30
2018-03-11T10:55:17.002Z,941.27
2018-03-11T10:56:16.947Z,941.24
2018-03-11T10:57:16.891Z,941.19
2018-03-11T10:58:16.835Z,941.28
2018-03-11T10:59:16.780Z,941.26
2018-03-11T11:00:16.721Z,941.28
2018-03-11T11:01:16.666Z,941.26
2018-03-11T11:02:16.614Z,941.23
2018-03-11T11:03:16.554Z,941.23
2018-03-11T11:04:16.497Z,941.26
2018-03-11T11:05:16.443Z,941.24
2018-03-11T11:06:16.385Z,941.25
2018-03-11T11:07:16.331Z,941.25
2018-03-11T11:08:16.279Z,941.21
2018-03-11T11:09:16.218Z,941.23
2018-03-11T11:10:16.164Z,941.23
2018-03-11T11:11:16.107Z,941.24
2018-03-11T11:12:16.051Z,941.32
2018-03-11T11:13:15.993Z,941.38
2018-03-11T11:14:15.937Z,941.39
2018-03-11T11:15:15.883Z,941.36
2018-03-11T11:16:15.824Z,941.32
2018-03-11T11:17:15.768Z,941.34
2018-03-11T11:18:15.712Z,941.35
2018-03-11T11:19:15.671Z,941.34
2018-03-11T11:20:15.601Z,941.35
2018-03-11T11:21:15.548Z,941.34
2018-03-11T11:22:15.486Z,941.36
2018-03-11T11:23:15.432Z,941.36
2018-03-11T11:24:15.377Z,941.36
2018-03-11T11:25:15.319Z,941.35
2018-03-11T11:26:15.263Z,941.36
2018-03-11T11:27:15.212Z,941.37
2018-03-11T11:28:15.154Z,941.37
2018-03-11T11:29:15.099Z,941.32
2018-03-11T11:30:15.043Z,941.32
2018-03-11T11:31:15.036Z,941.33
2018-03-11T11:32:14.927Z,941.34
2018-03-11T11:33:14.871Z,941.33
2018-03-11T11:34:14.814Z,941.31
2018-03-11T11:35:14.760Z,941.30
2018-03-11T11:36:14.704Z,941.27
2018-03-11T11:37:14.646Z,941.19
2018-03-11T11:38:14.592Z,941.17
2018-03-11T11:39:14.539Z,941.15
2018-03-11T11:40:14.480Z,941.17
2018-03-11T11:41:14.424Z,941.12
2018-03-11T11:42:14.370Z,941.12
2018-03-11T11:43:14.312Z,941.06
2018-03-11T11:44:14.256Z,941.14
2018-03-11T11:45:14.201Z,941.06
2018-03-11T11:46:14.143Z,941.06
2018-03-11T11:47:14.088Z,941.05
2018-03-11T11:48:14.034Z,941.03
2018-03-11T11:49:13.976Z,941.01
2018-03-11T11:50:13.920Z,940.95
2018-03-11T11:51:13.866Z,940.95
2018-03-11T11:52:13.808Z,940.92
2018-03-11T11:53:13.753Z,940.92
2018-03-11T11:54:13.701Z,940.92
2018-03-11T11:55:13.668Z,940.86
2018-03-11T11:56:13.592Z,940.86
2018-03-11T11:57:13.528Z,940.80
2018-03-11T11:58:13.473Z,940.76
2018-03-11T11:59:13.420Z,940.78
2018-03-11T12:00:13.361Z,940.75
2018-03-11T12:01:13.307Z,940.66
2018-03-11T12:02:13.251Z,940.65
2018-03-11T12:03:13.195Z,940.63
2018-03-11T12:04:13.135Z,940.61
2018-03-11T12:05:13.079Z,940.61
2018-03-11T12:06:13.026Z,940.59
2018-03-11T12:07:12.968Z,940.61
2018-03-11T12:08:12.913Z,940.59
2018-03-11T12:09:12.858Z,940.60
2018-03-11T12:10:12.801Z,940.54
2018-03-11T12:11:12.743Z,940.58
2018-03-11T12:12:12.701Z,940.54
2018-03-11T12:13:12.633Z,940.59
2018-03-11T12:14:12.577Z,940.55
2018-03-11T12:15:12.522Z,940.58
2018-03-11T12:16:12.465Z,940.58
2018-03-11T12:17:12.407Z,940.58
2018-03-11T12:18:12.352Z,940.56
2018-03-11T12:19:12.339Z,940.55
2018-03-11T12:20:12.242Z,940.58
2018-03-11T12:21:12.185Z,940.55
2018-03-11T12:22:12.129Z,940.59
2018-03-11T12:23:12.073Z,940.56
2018-03-11T12:24:12.018Z,940.58
2018-03-11T12:25:11.963Z,940.58
2018-03-11T12:26:11.905Z,940.57
2018-03-11T12:27:11.852Z,940.65
2018-03-11T12:28:11.793Z,940.65